Time;durP1;ratioP1;P1;durP2;ratioP2;P2;SDS_P1;SDS_P2;PMS_P1;PMS_P2;Temp;Humidity;BMP_temperature;BMP_pressure;BME280_temperature;BME280_humidity;BME280_pressure;Samples;Min_cycle;Max_cycle;Signal;HPM_P1;HPM_P2
2022/06/05 07:28:42;;;;;;;16.35;10.80;;;17.20;64.20;;;;;;5203905;24;20088;-83
2022/06/05 07:31:09;;;;;;;15.30;11.80;;;17.20;64.20;;;;;;4832716;29;20501;-83
2022/06/05 07:33:35;;;;;;;12.43;11.18;;;17.30;64.10;;;;;;4843464;29;20069;-83
2022/06/05 07:36:04;;;;;;;15.73;11.07;;;17.30;64.30;;;;;;4848793;29;20046;-83
2022/06/05 07:38:32;;;;;;;12.18;10.98;;;17.40;64.20;;;;;;4841716;29;20046;-84
2022/06/05 07:40:58;;;;;;;13.38;10.43;;;17.40;64.20;;;;;;4842967;29;20090;-83
2022/06/05 07:43:24;;;;;;;13.07;11.40;;;17.50;64.00;;;;;;4843462;29;20046;-83
2022/06/05 07:45:50;;;;;;;13.63;10.95;;;17.50;63.60;;;;;;4842839;29;20493;-84
2022/06/05 07:48:19;;;;;;;12.70;10.40;;;17.60;63.40;;;;;;4827150;29;20060;-84
2022/06/05 07:56:15;;;;;;;12.32;10.98;;;17.70;62.60;;;;;;4844208;29;20069;-85
2022/06/05 07:58:41;;;;;;;13.15;10.15;;;17.70;62.70;;;;;;4827077;29;20069;-85
2022/06/05 08:01:07;;;;;;;12.43;9.93;;;17.80;62.70;;;;;;4844414;29;20060;-85
2022/06/05 08:03:35;;;;;;;13.32;9.75;;;17.80;62.80;;;;;;4842776;29;20141;-84
2022/06/05 08:06:00;;;;;;;12.90;10.02;;;17.90;62.60;;;;;;4843357;29;20096;-85
2022/06/05 08:08:26;;;;;;;13.07;10.35;;;17.90;62.70;;;;;;4826940;29;20086;-84
2022/06/05 08:10:52;;;;;;;14.10;10.15;;;18.00;62.50;;;;;;4845431;29;20052;-87
2022/06/05 08:13:17;;;;;;;11.35;10.18;;;18.00;62.70;;;;;;4843142;29;20069;-86
2022/06/05 08:15:44;;;;;;;11.80;10.55;;;18.10;62.50;;;;;;4827188;29;20543;-89
2022/06/05 08:18:10;;;;;;;12.88;10.52;;;18.20;62.90;;;;;;4843419;29;20465;-81
2022/06/05 08:20:36;;;;;;;11.27;10.05;;;18.30;62.50;;;;;;4840505;29;20130;-83
2022/06/05 08:23:02;;;;;;;11.60;10.48;;;18.40;62.00;;;;;;4826665;29;20046;-84
2022/06/05 08:25:28;;;;;;;12.57;10.35;;;18.50;61.90;;;;;;4843374;29;20450;-85
2022/06/05 08:27:54;;;;;;;11.57;10.38;;;18.60;62.10;;;;;;4841669;29;20070;-87
2022/06/05 08:30:19;;;;;;;10.18;9.20;;;18.70;62.30;;;;;;4826473;29;20525;-85
2022/06/05 08:32:45;;;;;;;12.45;9.43;;;18.80;62.10;;;;;;4855532;29;20486;-85
2022/06/05 08:35:11;;;;;;;11.85;9.35;;;18.80;61.60;;;;;;4832158;29;20195;-86
2022/06/05 08:43:27;;;;;;;11.27;9.45;;;19.10;60.80;;;;;;4844802;29;20394;-82
2022/06/05 08:46:24;;;;;;;9.70;8.70;;;19.20;60.80;;;;;;4855882;29;20808;-83
2022/06/05 08:49:00;;;;;;;10.00;8.55;;;19.30;59.50;;;;;;4841766;29;20346;-83
2022/06/05 08:51:45;;;;;;;9.60;8.70;;;19.40;59.90;;;;;;4846901;29;20041;-83
2022/06/05 08:54:45;;;;;;;10.30;9.20;;;19.50;59.70;;;;;;4812977;29;20042;-83
2022/06/05 08:57:21;;;;;;;10.25;9.15;;;19.60;59.70;;;;;;4822102;29;20058;-84
2022/06/05 08:59:55;;;;;;;10.35;9.30;;;19.70;59.50;;;;;;4841674;29;20042;-84
2022/06/05 09:02:41;;;;;;;9.88;8.88;;;19.80;59.50;;;;;;4842393;29;20393;-83
2022/06/05 09:05:35;;;;;;;10.48;9.02;;;19.90;59.00;;;;;;4825915;29;20065;-83
2022/06/05 09:08:09;;;;;;;10.03;8.80;;;20.00;58.90;;;;;;4813645;29;20410;-84
2022/06/05 09:10:45;;;;;;;10.00;9.00;;;20.10;59.10;;;;;;4841924;29;20326;-83
2022/06/05 09:13:24;;;;;;;12.25;9.20;;;20.30;59.20;;;;;;4841053;29;20118;-84
2022/06/05 09:16:09;;;;;;;10.02;7.80;;;20.50;59.10;;;;;;4841594;29;20046;-84
2022/06/05 09:18:37;;;;;;;9.90;8.90;;;20.60;57.80;;;;;;4814149;29;20100;-83
2022/06/05 09:21:18;;;;;;;11.95;9.02;;;20.80;58.20;;;;;;4827805;29;20075;-83
2022/06/05 09:23:46;;;;;;;10.60;8.82;;;20.90;57.70;;;;;;4829015;29;20064;-83
2022/06/05 09:26:22;;;;;;;9.50;8.50;;;21.00;57.80;;;;;;4844843;29;20052;-83
2022/06/05 09:29:12;;;;;;;8.80;7.90;;;21.10;58.20;;;;;;4827588;29;20089;-82
2022/06/05 09:31:44;;;;;;;8.63;7.63;;;21.20;57.60;;;;;;4841410;29;20053;-81
2022/06/05 09:34:22;;;;;;;8.55;7.75;;;21.30;57.10;;;;;;4840155;29;20564;-90
2022/06/05 09:37:28;;;;;;;9.68;8.13;;;21.40;56.30;;;;;;4822850;29;20048;-83
2022/06/05 09:40:04;;;;;;;8.48;7.68;;;21.40;56.30;;;;;;4799117;29;20460;-83
2022/06/05 09:42:38;;;;;;;9.30;7.95;;;21.50;56.50;;;;;;4786726;29;20182;-83
2022/06/05 09:45:07;;;;;;;8.27;7.43;;;21.50;56.00;;;;;;4779469;30;20071;-83
2022/06/05 09:47:41;;;;;;;9.48;8.60;;;21.60;55.80;;;;;;4789397;29;20089;-83
2022/06/05 09:50:26;;;;;;;8.38;7.43;;;21.60;55.20;;;;;;4803667;29;20115;-83
2022/06/05 09:52:52;;;;;;;9.15;7.85;;;21.50;55.70;;;;;;4793760;29;20192;-82
2022/06/05 09:55:45;;;;;;;8.63;7.75;;;21.50;55.80;;;;;;4783725;29;20069;-82
2022/06/05 09:58:27;;;;;;;9.02;8.10;;;21.50;55.90;;;;;;4792115;29;20142;-83
2022/06/05 10:00:58;;;;;;;9.52;8.32;;;21.60;56.10;;;;;;4800384;29;20615;-82
2022/06/05 10:03:32;;;;;;;9.93;7.97;;;21.60;56.00;;;;;;4798009;29;20134;-82
2022/06/05 10:06:35;;;;;;;8.50;7.70;;;21.70;56.30;;;;;;4792124;29;20108;-84
2022/06/05 10:09:09;;;;;;;11.65;9.38;;;21.80;55.70;;;;;;4770566;29;20062;-84
2022/06/05 10:12:04;;;;;;;10.60;8.30;;;21.80;55.40;;;;;;4794232;29;20535;-82
2022/06/05 10:14:38;;;;;;;8.75;7.60;;;21.80;55.10;;;;;;4789247;29;20062;-86
2022/06/05 10:17:37;;;;;;;10.70;7.43;;;21.80;55.40;;;;;;4844743;29;20058;-84
2022/06/05 10:20:12;;;;;;;8.55;7.72;;;21.90;54.60;;;;;;4833231;29;20085;-84
2022/06/05 10:22:44;;;;;;;8.65;7.85;;;21.80;55.50;;;;;;4807694;29;20447;-84
2022/06/05 10:25:44;;;;;;;8.65;7.85;;;21.90;55.30;;;;;;4856115;29;20049;-85
2022/06/05 10:28:22;;;;;;;8.75;7.90;;;21.90;55.40;;;;;;4831339;29;20136;-85
2022/06/05 10:30:53;;;;;;;9.73;8.10;;;22.00;55.50;;;;;;4839867;29;20068;-85
2022/06/05 10:46:24;;;;;;;9.13;7.53;;;22.30;55.70;;;;;;5336943;24;20139;-90
2022/06/05 10:49:05;;;;;;;8.48;7.57;;;22.40;55.70;;;;;;4800694;29;20486;-95
2022/06/05 10:51:46;;;;;;;9.98;7.72;;;22.40;55.90;;;;;;4806761;29;20046;-91
2022/06/05 10:54:14;;;;;;;10.95;8.65;;;22.50;55.10;;;;;;4828970;29;20426;-87
2022/06/05 10:56:52;;;;;;;10.10;8.10;;;22.50;54.60;;;;;;4820847;29;20065;-92
2022/06/05 11:03:22;;;;;;;8.77;7.18;;;22.40;54.60;;;;;;4828353;29;20053;-96
2022/06/05 11:06:21;;;;;;;7.97;7.28;;;22.40;54.10;;;;;;4804969;29;20054;-95
2022/06/05 11:09:15;;;;;;;8.25;7.38;;;22.40;54.70;;;;;;4832555;29;20049;-95
2022/06/05 11:14:41;;;;;;;8.30;6.93;;;22.40;54.70;;;;;;4820827;29;20050;-83
2022/06/05 11:17:30;;;;;;;9.25;7.20;;;22.40;54.80;;;;;;4825249;29;20129;-83
2022/06/05 11:20:10;;;;;;;7.93;7.13;;;22.40;54.80;;;;;;4808062;29;20095;-83
2022/06/05 11:22:42;;;;;;;10.05;7.65;;;22.50;55.00;;;;;;4822453;29;20134;-84
2022/06/05 11:25:29;;;;;;;6.53;5.93;;;22.50;55.00;;;;;;4804259;29;20058;-85
2022/06/05 11:28:18;;;;;;;7.60;6.88;;;22.50;54.70;;;;;;4798144;29;20509;-84
2022/06/05 11:31:13;;;;;;;8.00;7.05;;;22.50;55.10;;;;;;4807244;29;20056;-85
2022/06/05 11:33:47;;;;;;;10.90;8.00;;;22.60;55.30;;;;;;4796341;29;20057;-85
2022/06/05 11:36:37;;;;;;;8.52;7.60;;;22.60;55.10;;;;;;4802517;29;20426;-83
2022/06/05 11:39:24;;;;;;;8.20;7.43;;;22.60;55.00;;;;;;4821745;29;20061;-84
2022/06/05 11:42:01;;;;;;;7.95;7.20;;;22.60;55.00;;;;;;4816007;29;20098;-85
2022/06/05 11:44:33;;;;;;;7.10;6.45;;;22.60;55.20;;;;;;4809190;29;20057;-84
2022/06/05 11:47:21;;;;;;;8.20;7.40;;;22.60;55.20;;;;;;4796492;29;20514;-85
2022/06/05 11:50:11;;;;;;;8.10;7.07;;;22.70;54.80;;;;;;4783553;29;20046;-84
2022/06/05 11:52:55;;;;;;;7.93;7.22;;;22.70;54.80;;;;;;4781519;29;20072;-83
2022/06/05 11:55:48;;;;;;;8.23;7.43;;;22.70;55.30;;;;;;4800177;29;20065;-83
2022/06/05 11:58:38;;;;;;;8.32;7.53;;;22.60;54.60;;;;;;4803037;29;20060;-84
2022/06/05 12:01:11;;;;;;;7.75;6.57;;;22.70;53.90;;;;;;4808571;29;20066;-84
2022/06/05 12:03:59;;;;;;;8.32;6.75;;;22.80;54.10;;;;;;4775750;29;20047;-84
2022/06/05 12:06:49;;;;;;;7.78;7.07;;;22.80;54.00;;;;;;4814034;29;20053;-84
2022/06/05 12:09:27;;;;;;;7.82;6.18;;;22.80;53.70;;;;;;4817847;29;20180;-83
2022/06/05 12:12:05;;;;;;;8.13;6.93;;;22.80;54.20;;;;;;4781751;29;20047;-84
2022/06/05 12:14:51;;;;;;;7.38;6.68;;;22.80;53.80;;;;;;4815484;29;20496;-84
2022/06/05 12:17:38;;;;;;;8.38;7.47;;;22.90;54.00;;;;;;4824403;29;20117;-84
2022/06/05 12:20:29;;;;;;;11.10;6.60;;;22.90;53.80;;;;;;4807646;29;20122;-85
2022/06/05 12:23:12;;;;;;;7.47;6.72;;;23.00;53.40;;;;;;4801657;29;20046;-83
2022/06/05 12:25:57;;;;;;;7.35;6.63;;;23.00;53.60;;;;;;4799827;29;20514;-83
2022/06/05 12:28:42;;;;;;;8.77;6.65;;;23.00;53.70;;;;;;4791530;29;20059;-83
2022/06/05 12:31:17;;;;;;;7.95;7.15;;;23.00;53.60;;;;;;4818275;29;20046;-84
2022/06/05 12:34:02;;;;;;;7.97;6.60;;;23.00;53.30;;;;;;4812378;29;20517;-84
2022/06/05 12:36:35;;;;;;;7.85;7.07;;;23.00;53.30;;;;;;4800846;29;20123;-83
2022/06/05 12:39:05;;;;;;;7.55;6.70;;;23.00;53.60;;;;;;4802097;29;20198;-84
2022/06/05 12:41:55;;;;;;;8.15;7.35;;;23.00;53.30;;;;;;4803586;29;20047;-83
2022/06/05 12:44:28;;;;;;;6.70;6.10;;;23.00;53.90;;;;;;4787986;29;20138;-83
2022/06/05 12:47:39;;;;;;;7.93;6.63;;;23.00;53.30;;;;;;4779484;29;20046;-84
2022/06/05 12:50:23;;;;;;;7.95;6.57;;;23.00;53.30;;;;;;4795171;29;20066;-82
2022/06/05 12:53:13;;;;;;;6.95;6.35;;;23.00;53.70;;;;;;4792968;29;20062;-82
2022/06/05 12:56:07;;;;;;;7.93;6.78;;;23.00;53.80;;;;;;4810397;29;20039;-83
2022/06/05 12:58:51;;;;;;;7.20;6.53;;;23.10;53.60;;;;;;4789651;29;20090;-82
2022/06/05 13:01:50;;;;;;;8.80;6.35;;;23.10;53.60;;;;;;4796785;29;20083;-83
2022/06/05 13:04:39;;;;;;;7.85;7.07;;;23.10;54.70;;;;;;4749640;30;20580;-83
2022/06/05 13:07:26;;;;;;;7.38;6.35;;;23.10;54.10;;;;;;4744963;30;20056;-83
2022/06/05 13:10:00;;;;;;;7.75;7.00;;;23.10;54.60;;;;;;4748960;30;20139;-83
2022/06/05 13:12:41;;;;;;;7.68;6.93;;;23.20;54.20;;;;;;4736283;30;20053;-83
2022/06/05 13:15:30;;;;;;;7.18;6.57;;;23.20;53.70;;;;;;4749577;30;20436;-83
2022/06/05 13:18:08;;;;;;;8.18;7.47;;;23.30;54.10;;;;;;4733018;30;20098;-82
2022/06/05 13:20:56;;;;;;;7.85;7.13;;;23.30;54.10;;;;;;4762858;30;20055;-83
2022/06/05 13:23:47;;;;;;;8.25;6.82;;;23.30;53.60;;;;;;4748147;30;20078;-84
2022/06/05 13:26:36;;;;;;;8.35;6.97;;;23.30;53.70;;;;;;4751317;30;20092;-84
2022/06/05 13:29:16;;;;;;;7.95;6.38;;;23.30;53.70;;;;;;4739580;30;20059;-84
2022/06/05 13:32:04;;;;;;;7.82;7.07;;;23.30;53.60;;;;;;4741144;30;20768;-84
2022/06/05 13:34:38;;;;;;;9.27;7.22;;;23.40;53.30;;;;;;4732307;30;20068;-85
2022/06/05 13:37:10;;;;;;;8.95;7.07;;;23.40;53.60;;;;;;4731929;30;20083;-84
2022/06/05 13:39:42;;;;;;;7.38;6.68;;;23.40;53.50;;;;;;4738222;30;20091;-84
2022/06/05 13:42:11;;;;;;;7.30;6.38;;;23.40;53.60;;;;;;4767758;30;20050;-83
2022/06/05 13:44:38;;;;;;;7.25;6.53;;;23.40;53.80;;;;;;4773036;29;20059;-83
2022/06/05 13:47:24;;;;;;;7.78;7.03;;;23.50;53.90;;;;;;4790811;29;20568;-84
2022/06/05 13:50:10;;;;;;;8.50;6.75;;;23.50;54.10;;;;;;4785206;29;20083;-84
2022/06/05 13:52:35;;;;;;;7.25;6.55;;;23.50;53.70;;;;;;4790374;29;20047;-83
2022/06/05 13:55:24;;;;;;;7.03;6.35;;;23.50;53.70;;;;;;4792112;29;20047;-84
2022/06/05 13:57:56;;;;;;;8.05;6.15;;;23.60;53.80;;;;;;4795664;29;20077;-83
2022/06/05 14:00:42;;;;;;;7.00;6.30;;;23.60;53.80;;;;;;4804899;29;20503;-84
2022/06/05 14:03:12;;;;;;;7.22;6.53;;;23.60;53.50;;;;;;4774177;29;20051;-83
2022/06/05 14:05:45;;;;;;;6.28;5.68;;;23.60;53.40;;;;;;4779977;29;20093;-84
2022/06/05 14:08:21;;;;;;;6.03;5.53;;;23.60;53.50;;;;;;4803524;29;20046;-83
2022/06/05 14:11:02;;;;;;;6.95;6.22;;;23.60;53.80;;;;;;4802987;29;20071;-83
2022/06/05 14:13:42;;;;;;;7.50;6.75;;;23.60;54.40;;;;;;4802252;29;20103;-84
2022/06/05 14:16:08;;;;;;;7.18;6.50;;;23.60;54.20;;;;;;4785030;29;20066;-84
2022/06/05 14:18:50;;;;;;;7.65;6.95;;;23.60;54.40;;;;;;4792780;29;20381;-83
2022/06/05 14:21:22;;;;;;;7.25;6.55;;;23.60;54.50;;;;;;4781747;29;20457;-83
2022/06/05 14:23:48;;;;;;;6.65;6.10;;;23.50;54.60;;;;;;4783963;30;20063;-83
2022/06/05 14:26:17;;;;;;;7.22;6.28;;;23.50;54.30;;;;;;4791766;29;20779;-83
2022/06/05 14:28:45;;;;;;;7.22;6.53;;;23.40;54.20;;;;;;4802790;29;20062;-82
2022/06/05 14:31:20;;;;;;;6.85;5.70;;;23.40;53.70;;;;;;4800241;29;20054;-82
2022/06/05 14:33:58;;;;;;;6.78;5.35;;;23.40;52.90;;;;;;4787701;29;20051;-83
2022/06/05 14:36:48;;;;;;;6.07;5.47;;;23.40;52.00;;;;;;4793969;29;20047;-82
2022/06/05 14:39:38;;;;;;;5.65;5.15;;;23.30;51.90;;;;;;4787464;29;20097;-81
2022/06/05 14:42:37;;;;;;;6.40;5.80;;;23.30;52.20;;;;;;4790235;29;20051;-80
2022/06/05 14:45:17;;;;;;;6.28;5.68;;;23.30;52.60;;;;;;4798459;29;20170;-80
2022/06/05 14:48:18;;;;;;;5.93;5.32;;;23.30;51.80;;;;;;4780474;29;20082;-80
2022/06/05 14:51:07;;;;;;;7.53;5.50;;;23.30;51.90;;;;;;4777935;29;20054;-83
2022/06/05 14:53:36;;;;;;;7.13;5.20;;;23.30;52.60;;;;;;4790122;29;20134;-79
2022/06/05 14:59:18;;;;;;;5.72;5.22;;;23.30;52.40;;;;;;4790926;29;20059;-81
2022/06/05 15:02:01;;;;;;;6.95;5.25;;;23.20;52.30;;;;;;4787293;29;20051;-81
2022/06/05 15:05:10;;;;;;;5.78;5.28;;;23.30;52.40;;;;;;4797361;29;20051;-81
2022/06/05 15:07:45;;;;;;;18.92;6.07;;;23.30;52.60;;;;;;4675158;30;20096;-82
2022/06/05 15:10:31;;;;;;;8.02;6.00;;;23.30;52.50;;;;;;4678155;30;20080;-81
2022/06/05 15:13:07;;;;;;;6.65;5.53;;;23.30;52.30;;;;;;4678740;30;20545;-81
2022/06/05 15:15:36;;;;;;;7.90;5.38;;;23.20;52.30;;;;;;4658530;30;20825;-82
2022/06/05 15:18:02;;;;;;;6.15;5.10;;;23.20;52.60;;;;;;4684561;30;20053;-81
2022/06/05 15:20:53;;;;;;;6.55;5.82;;;23.20;52.90;;;;;;4694591;30;20221;-83
2022/06/05 15:23:35;;;;;;;7.32;5.72;;;23.20;53.10;;;;;;4694347;30;20147;-82
2022/06/05 15:26:24;;;;;;;9.60;6.57;;;23.10;53.20;;;;;;4690453;30;20603;-82
2022/06/05 15:29:14;;;;;;;7.90;5.97;;;23.10;53.40;;;;;;4675327;30;20073;-83
2022/06/05 15:32:06;;;;;;;6.63;5.95;;;23.10;53.70;;;;;;4682230;30;20101;-82
2022/06/05 15:35:00;;;;;;;7.60;6.43;;;23.00;54.10;;;;;;4687611;30;20656;-84
2022/06/05 15:37:41;;;;;;;6.47;5.68;;;22.90;53.90;;;;;;4698385;30;20063;-84
2022/06/05 15:40:13;;;;;;;8.00;6.78;;;22.80;54.30;;;;;;4805126;29;20563;-85
2022/06/05 15:42:45;;;;;;;7.15;5.97;;;22.80;54.50;;;;;;4782649;29;20515;-83
2022/06/05 15:45:29;;;;;;;7.15;6.53;;;22.70;55.20;;;;;;4782461;29;20065;-81
2022/06/05 15:48:03;;;;;;;7.38;6.70;;;22.60;56.10;;;;;;4797488;29;20067;-81
2022/06/05 15:50:41;;;;;;;8.95;7.75;;;22.60;56.90;;;;;;4782094;29;20133;-81
2022/06/05 15:53:25;;;;;;;8.20;7.50;;;22.40;57.30;;;;;;4776818;29;20047;-80
2022/06/05 15:55:51;;;;;;;8.95;8.05;;;22.30;57.70;;;;;;4773764;29;20130;-80
2022/06/05 15:59:01;;;;;;;10.43;8.07;;;22.20;58.20;;;;;;4772929;29;20125;-81
2022/06/05 16:01:33;;;;;;;8.82;7.93;;;22.10;59.00;;;;;;4808977;29;20054;-81
2022/06/05 16:04:11;;;;;;;8.35;7.63;;;22.00;59.40;;;;;;4801258;29;20147;-81
2022/06/05 16:07:02;;;;;;;9.70;8.80;;;21.80;59.80;;;;;;4802788;29;20074;-81
2022/06/05 16:09:58;;;;;;;8.20;7.47;;;21.70;60.60;;;;;;4799804;29;20063;-80
2022/06/05 16:12:37;;;;;;;9.15;8.35;;;21.60;60.80;;;;;;4801661;29;20059;-80
2022/06/05 16:15:22;;;;;;;9.32;8.35;;;21.50;61.30;;;;;;4781517;29;20070;-81
2022/06/05 16:18:03;;;;;;;10.07;9.13;;;21.40;61.60;;;;;;4799464;29;20074;-81
2022/06/05 16:20:41;;;;;;;9.38;8.57;;;21.30;62.40;;;;;;4807039;29;20055;-81
2022/06/05 16:23:27;;;;;;;9.18;8.38;;;21.20;63.20;;;;;;4798863;29;20047;-79
2022/06/05 16:25:59;;;;;;;5.75;5.25;;;21.10;63.20;;;;;;4801915;29;20111;-80
2022/06/05 16:28:45;;;;;;;4.47;3.60;;;21.00;63.10;;;;;;4795193;29;20047;-81
2022/06/05 16:31:13;;;;;;;4.38;3.25;;;20.90;61.80;;;;;;4791767;29;20047;-79
2022/06/05 16:33:42;;;;;;;4.65;3.15;;;20.70;61.90;;;;;;4780127;29;20074;-81
2022/06/05 16:39:27;;;;;;;3.50;2.38;;;20.30;62.60;;;;;;4792967;29;20050;-80
2022/06/05 16:41:55;;;;;;;2.83;2.20;;;20.10;62.80;;;;;;4784717;29;20476;-83
2022/06/05 16:44:56;;;;;;;2.60;1.70;;;20.00;63.40;;;;;;4768656;29;20476;-79
2022/06/05 16:47:31;;;;;;;2.80;1.92;;;19.90;63.90;;;;;;4751655;30;20134;-80
2022/06/05 16:50:17;;;;;;;2.70;1.92;;;19.70;64.50;;;;;;4765811;30;20067;-83
2022/06/05 16:52:46;;;;;;;1.95;1.60;;;19.50;64.70;;;;;;4759030;30;20052;-84
2022/06/05 16:55:11;;;;;;;2.08;1.88;;;19.40;65.00;;;;;;4765798;30;20075;-83
2022/06/05 16:58:06;;;;;;;3.03;2.10;;;19.30;65.50;;;;;;4750883;30;20070;-80
2022/06/05 17:00:34;;;;;;;2.17;1.80;;;19.20;66.00;;;;;;4758212;30;20056;-78
2022/06/05 17:03:02;;;;;;;2.38;2.05;;;19.00;66.20;;;;;;4752789;30;20198;-78
2022/06/05 17:05:39;;;;;;;3.10;1.73;;;18.90;66.80;;;;;;4755704;30;20555;-79
2022/06/05 17:08:20;;;;;;;4.18;2.25;;;18.80;67.50;;;;;;4743281;30;20055;-79
2022/06/05 17:10:49;;;;;;;2.92;1.90;;;18.70;68.00;;;;;;4738021;30;20892;-80
2022/06/05 17:13:15;;;;;;;2.30;1.70;;;18.60;68.40;;;;;;4740360;30;20106;-80
2022/06/05 17:15:41;;;;;;;2.50;2.05;;;18.50;68.70;;;;;;4751431;30;20048;-82
2022/06/05 17:18:14;;;;;;;2.33;1.95;;;18.50;69.00;;;;;;4748652;30;20063;-84
2022/06/05 17:20:49;;;;;;;2.50;2.13;;;18.50;69.60;;;;;;4743692;30;20389;-82
2022/06/05 17:23:17;;;;;;;1.75;1.60;;;18.40;69.70;;;;;;4743416;29;20055;-83
2022/06/05 17:25:55;;;;;;;2.13;1.92;;;18.40;69.90;;;;;;4769598;30;20090;-80
2022/06/05 17:29:09;;;;;;;3.20;2.35;;;18.40;70.20;;;;;;4785094;30;20146;-80
2022/06/05 17:31:34;;;;;;;3.05;2.28;;;18.40;69.90;;;;;;4715174;30;20059;-80
2022/06/05 17:34:02;;;;;;;3.33;2.40;;;18.40;69.90;;;;;;4714851;30;20057;-80
2022/06/05 17:36:39;;;;;;;3.78;2.67;;;18.40;70.20;;;;;;4716030;30;20060;-78
2022/06/05 17:39:28;;;;;;;2.90;2.53;;;18.40;70.20;;;;;;4734340;30;20110;-79
2022/06/05 17:41:54;;;;;;;2.88;2.55;;;18.50;70.30;;;;;;4724319;30;20088;-78
2022/06/05 17:44:23;;;;;;;4.03;2.95;;;18.50;70.30;;;;;;4731330;30;20075;-78
2022/06/05 17:47:07;;;;;;;3.22;2.85;;;18.50;70.40;;;;;;4717385;30;20068;-77
2022/06/05 17:49:36;;;;;;;3.13;2.78;;;18.60;70.70;;;;;;4739631;30;20067;-78
2022/06/05 17:52:02;;;;;;;4.32;3.92;;;18.60;70.00;;;;;;4707307;30;20502;-81
2022/06/05 17:54:50;;;;;;;4.82;3.63;;;18.60;70.50;;;;;;4711569;30;20063;-81
2022/06/05 17:57:34;;;;;;;5.45;4.50;;;18.70;70.50;;;;;;4725690;30;20049;-80
2022/06/05 18:00:04;;;;;;;6.45;4.47;;;18.60;70.60;;;;;;4732615;30;20188;-79
2022/06/05 18:02:30;;;;;;;4.82;4.20;;;18.70;70.70;;;;;;4719342;30;20469;-77
2022/06/05 18:05:07;;;;;;;4.32;3.92;;;18.70;70.80;;;;;;4738128;30;20056;-80
2022/06/05 18:07:32;;;;;;;4.80;4.30;;;18.70;71.10;;;;;;4752983;29;20051;-79
2022/06/05 18:09:58;;;;;;;5.18;4.68;;;18.70;70.90;;;;;;4808018;29;20055;-80
2022/06/05 18:12:28;;;;;;;4.30;3.50;;;18.70;70.80;;;;;;4774501;30;20091;-80
2022/06/05 18:14:56;;;;;;;4.78;4.05;;;18.70;70.80;;;;;;4791262;30;20136;-80
2022/06/05 18:17:28;;;;;;;4.20;3.83;;;18.70;70.80;;;;;;4788368;29;20063;-79
2022/06/05 18:19:53;;;;;;;5.00;4.45;;;18.70;70.90;;;;;;4799952;29;20047;-79
2022/06/05 18:22:33;;;;;;;4.15;3.75;;;18.70;70.90;;;;;;4799642;29;20578;-80
2022/06/05 18:25:19;;;;;;;4.78;4.28;;;18.70;70.90;;;;;;4808820;29;20135;-79
2022/06/05 18:27:56;;;;;;;5.60;4.97;;;18.70;70.70;;;;;;4806743;29;20111;-80
2022/06/05 18:30:31;;;;;;;5.65;4.88;;;18.70;70.80;;;;;;4807163;29;20447;-80
2022/06/05 18:33:16;;;;;;;5.72;5.20;;;18.70;70.80;;;;;;4798526;29;20125;-80
2022/06/05 18:38:29;;;;;;;7.60;6.82;;;18.70;70.90;;;;;;4791750;29;20163;-79
2022/06/05 18:41:00;;;;;;;8.13;7.03;;;18.70;71.00;;;;;;4814627;29;20047;-80
2022/06/05 18:43:34;;;;;;;9.32;8.30;;;18.70;71.30;;;;;;4782958;30;20054;-80
2022/06/05 18:46:01;;;;;;;9.85;8.88;;;18.70;71.60;;;;;;4798835;29;20058;-79
2022/06/05 18:48:33;;;;;;;8.40;7.63;;;18.60;71.60;;;;;;4803254;29;20433;-80
2022/06/05 18:51:03;;;;;;;10.65;9.75;;;18.60;71.80;;;;;;4799847;29;20495;-81
2022/06/05 18:53:33;;;;;;;12.23;11.15;;;18.60;71.90;;;;;;4791969;29;20048;-81
2022/06/05 18:55:59;;;;;;;10.43;9.35;;;18.60;72.10;;;;;;4791782;29;20531;-80
2022/06/05 18:58:27;;;;;;;8.02;7.38;;;18.60;72.20;;;;;;4797182;29;20042;-80
2022/06/05 19:00:54;;;;;;;9.55;8.65;;;18.60;72.00;;;;;;4799590;29;20040;-82
2022/06/05 19:03:24;;;;;;;12.93;11.77;;;18.60;72.00;;;;;;4805046;29;20047;-81
2022/06/05 19:05:51;;;;;;;12.63;11.60;;;18.60;72.40;;;;;;4806619;29;20051;-79
2022/06/05 19:08:32;;;;;;;12.05;10.95;;;18.60;72.60;;;;;;4806888;29;20100;-81
2022/06/05 19:11:32;;;;;;;14.27;12.88;;;18.60;72.70;;;;;;4790494;29;20499;-81
2022/06/05 19:14:04;;;;;;;13.80;12.60;;;18.60;73.00;;;;;;4791494;29;20069;-81
2022/06/05 19:16:54;;;;;;;12.23;11.15;;;18.60;73.00;;;;;;4807647;29;20457;-82
2022/06/05 19:19:36;;;;;;;12.35;11.25;;;18.50;73.00;;;;;;4773764;30;20190;-82
2022/06/05 19:22:18;;;;;;;14.95;13.55;;;18.50;73.20;;;;;;4775501;29;20047;-81
2022/06/05 19:24:53;;;;;;;13.30;12.00;;;18.50;73.30;;;;;;4790077;30;20047;-80
2022/06/05 19:27:30;;;;;;;12.20;11.13;;;18.50;73.30;;;;;;4778696;29;20122;-80
2022/06/05 19:30:13;;;;;;;15.07;13.60;;;18.50;73.40;;;;;;4807854;29;20046;-81
2022/06/05 19:32:39;;;;;;;13.32;12.13;;;18.40;73.40;;;;;;4788553;29;20487;-81
2022/06/05 19:35:19;;;;;;;14.90;13.60;;;18.40;73.60;;;;;;4791496;29;20539;-81
2022/06/05 19:40:43;;;;;;;13.77;12.57;;;18.30;73.80;;;;;;4789638;30;20047;-80
2022/06/05 19:43:25;;;;;;;14.17;12.97;;;18.30;73.80;;;;;;4791263;29;20061;-80
2022/06/05 19:46:09;;;;;;;14.45;13.15;;;18.30;73.80;;;;;;4773568;30;20457;-80
2022/06/05 19:48:37;;;;;;;12.95;11.95;;;18.30;73.80;;;;;;4776293;29;20511;-81
2022/06/05 19:51:03;;;;;;;11.95;10.88;;;18.30;73.80;;;;;;4773435;30;20145;-81
2022/06/05 19:53:46;;;;;;;13.35;12.25;;;18.30;73.80;;;;;;4790895;29;20512;-80
2022/06/05 19:56:23;;;;;;;13.27;11.98;;;18.30;73.90;;;;;;4789230;29;20050;-81
2022/06/05 19:58:55;;;;;;;11.05;9.95;;;18.30;73.90;;;;;;4785775;29;20076;-80
2022/06/05 20:01:23;;;;;;;15.90;12.80;;;18.30;73.70;;;;;;4797316;29;20091;-81
2022/06/05 20:04:00;;;;;;;13.52;12.25;;;18.30;73.80;;;;;;4790009;29;20111;-81
2022/06/05 20:06:42;;;;;;;13.82;12.63;;;18.30;73.80;;;;;;4789444;29;20051;-81
2022/06/05 20:09:17;;;;;;;14.05;12.73;;;18.30;73.80;;;;;;4806822;29;20495;-81
2022/06/05 20:12:16;;;;;;;15.40;14.00;;;18.30;74.40;;;;;;4790956;29;20055;-81
2022/06/05 20:15:09;;;;;;;16.05;14.65;;;18.20;74.00;;;;;;4805741;29;20511;-80
2022/06/05 20:17:46;;;;;;;14.10;12.88;;;18.30;74.20;;;;;;4790380;29;20063;-81
2022/06/05 20:20:37;;;;;;;14.43;12.98;;;18.20;74.30;;;;;;4790774;29;20142;-82
2022/06/05 20:23:26;;;;;;;16.20;14.57;;;18.20;74.30;;;;;;4805481;29;20046;-80
2022/06/05 20:26:08;;;;;;;14.93;13.63;;;18.20;74.40;;;;;;4789758;29;20073;-81
2022/06/05 20:28:53;;;;;;;13.40;12.18;;;18.10;74.40;;;;;;4788885;29;20126;-82
2022/06/05 20:31:19;;;;;;;11.45;10.45;;;18.10;74.30;;;;;;4788965;30;20048;-82
2022/06/05 20:34:23;;;;;;;13.43;12.15;;;18.10;74.20;;;;;;4773450;30;20078;-83
2022/06/05 20:37:08;;;;;;;12.03;10.87;;;18.10;74.20;;;;;;4789874;29;20051;-83
2022/06/05 20:40:02;;;;;;;11.57;10.48;;;18.10;74.10;;;;;;4772898;30;20380;-83
2022/06/05 20:42:49;;;;;;;11.80;9.80;;;18.10;73.90;;;;;;4803021;29;20880;-82
2022/06/05 20:45:36;;;;;;;10.48;9.57;;;18.00;73.60;;;;;;4806389;29;20051;-82
2022/06/05 20:48:08;;;;;;;11.82;10.65;;;18.00;73.40;;;;;;4799503;29;20484;-81
2022/06/05 20:50:48;;;;;;;10.75;9.75;;;18.00;73.60;;;;;;4790495;29;20047;-83
2022/06/05 20:53:21;;;;;;;10.43;9.43;;;18.00;73.50;;;;;;4805214;29;20161;-82
2022/06/05 20:56:03;;;;;;;9.40;8.57;;;18.00;73.30;;;;;;4790865;29;20055;-80
2022/06/05 20:58:37;;;;;;;9.52;8.63;;;18.00;73.60;;;;;;4808136;29;20035;-80
2022/06/05 21:01:06;;;;;;;9.38;8.57;;;18.00;73.20;;;;;;4790440;29;20058;-80
2022/06/05 21:09:16;;;;;;;9.43;8.57;;;18.00;72.90;;;;;;4795634;29;20050;-82
2022/06/05 21:17:26;;;;;;;;;;;18.00;72.70;;;;;;4792577;29;20055;-81
2022/06/05 21:19:54;;;;;;;9.70;8.77;;;18.00;72.30;;;;;;4790667;29;19974;-81
2022/06/05 21:22:22;;;;;;;9.00;8.15;;;17.90;72.50;;;;;;4809683;29;20478;-81
2022/06/05 21:24:51;;;;;;;8.93;7.85;;;18.10;73.00;;;;;;4800036;29;20051;-82
2022/06/05 21:27:32;;;;;;;12.10;9.95;;;18.00;72.50;;;;;;4791369;30;20043;-81
2022/06/05 21:30:02;;;;;;;11.57;10.57;;;18.00;72.60;;;;;;4798366;29;20043;-81
2022/06/05 21:32:41;;;;;;;11.05;9.98;;;18.00;72.80;;;;;;4809400;29;20058;-81
2022/06/05 21:35:46;;;;;;;9.80;8.93;;;18.10;73.00;;;;;;4784508;30;20054;-80
2022/06/05 21:38:21;;;;;;;10.27;9.32;;;18.00;72.70;;;;;;4775161;30;20044;-80
2022/06/05 21:40:49;;;;;;;8.65;7.82;;;18.00;72.90;;;;;;4786518;29;20058;-80
2022/06/05 21:43:22;;;;;;;10.50;9.20;;;17.90;72.80;;;;;;4809034;29;20104;-80
2022/06/05 21:45:57;;;;;;;8.98;8.10;;;17.90;72.80;;;;;;4780296;30;20059;-80
2022/06/05 21:48:26;;;;;;;8.40;7.50;;;17.90;72.70;;;;;;4774503;30;20086;-80
2022/06/05 21:50:53;;;;;;;9.55;8.52;;;17.80;72.50;;;;;;4786700;29;20055;-80
2022/06/05 21:53:35;;;;;;;9.80;8.90;;;17.80;72.60;;;;;;4774801;30;20039;-79
2022/06/05 21:56:04;;;;;;;9.43;8.55;;;17.80;72.70;;;;;;4798038;29;20086;-81
2022/06/05 21:58:30;;;;;;;8.85;8.05;;;17.80;72.80;;;;;;4808952;29;20046;-80
2022/06/05 22:00:56;;;;;;;8.05;7.28;;;17.80;72.80;;;;;;4792267;29;20142;-80